Details From LJLJ - Ljubljana
To GCHI - Hierro
Flight Number -
Tags Generated
Created
Modified
Stats Distance 1,883 nm / 3,487 km
Max Altitude 0 ft / 0 m
Waypoints 7
Social Downloads 0
Likes 0
Share VATSIM

Download

Looking for another format? Having issues loading an existing format? Contact us
Advertisement - Login to hide

Notes

Generated

Route

LJLJ CMO BALMO CASIM BAI KORNO GCHI

ID Type Via Altitude Latitude Longitude Leg Dist Tot Dist Heading (true) Name
O LJLJ APT - 0 ft / 0 m 46.23249˚ 14.44039˚ - 0 nm - -
CMO NDB - 0 ft / 0 m 44.34583˚ 9.17111˚ 249 nm 249 nm 245° / 241° -
BALMO FIX - 0 ft / 0 m 42.41667˚ 4.58528˚ 231 nm 480 nm 242° / 238° -
CASIM FIX - 0 ft / 0 m 40.23083˚ 0.14296˚ 239 nm 720 nm 238° / 235° -
BAI NDB - 0 ft / 0 m 38.15151˚ -3.62917˚ 215 nm 935 nm 236° / 233° BAILEN NDB
KORNO FIX - 0 ft / 0 m 35.83333˚ -7.41667˚ 228 nm 1164 nm 234° / 231° -
O GCHI APT - 0 ft / 0 m 27.81985˚ -17.88997˚ 718 nm 1883 nm 231° / 225° -

Altitude Profile

Advertisement - Login to hide

Weather


0- 5 10 15 20 25 30 35+ Temperature / ° C

Clouds and Precipitation
Forecast for 2018-05-26 18:00 UTC. Updated 5 hours ago

Ground ~20,000 ft ~40,000 ft Winds

LJLJ

Details ICAO LJLJ (LJU)
Name LJUBLJANA
Region Slovenia
Timezone Europe/Ljubljana (UTC+2.0)
Stats Elevation 1,273 ft / 388 m (AMSL)
Location 46.223685° 14.457608°
Runways 1
Magnetic Variation 3.713° E

METAR

LJLJ 262130Z VRB01KT 9999 FEW043 SCT050 17/16 Q1022 NOSIG

Decode

TAF

TAF LJLJ 262000Z 2621/2721 12005KT 9999 FEW050 BECMG 2621/2623 29003KT PROB30 TEMPO 2621/2708 BKN040 BECMG 2708/2710 12005KT TEMPO 2713/2718 SCT045TCU PROB40 TEMPO 2715/2721 FEW040CB BKN050 PROB30 TEMPO 2715/2721 FEW040CB BKN050

Decode

Departure Runways

ID Width Length Bearing (true) Bearing (mag) Surface Threshold Offset Overrun Length
13 148 ft / 45 m 10,811 ft / 3,295 m 126.47° 122.76° Asphalt 0 ft / 0 m 0 ft / 0 m
31 148 ft / 45 m 10,811 ft / 3,295 m 306.49° 302.78° Asphalt 0 ft / 0 m 0 ft / 0 m

GCHI

Details ICAO GCHI (VDE)
Name Hierro
Region Canary Islands
Timezone Atlantic/Canary (UTC+1.0)
Stats Elevation 337 ft / 103 m (AMSL)
Location 27.814848° -17.887052°
Runways 1
Magnetic Variation 5.576° W

METAR

GCHI 262130Z AUTO 02010KT 350V060 9999 SCT025/// 19/14 Q1020

Decode

TAF

TAF GCHI 262000Z 2621/2721 02013KT 9999 SCT025 TX23/2714Z TN18/2705Z

Decode

Destination Runways

ID Width Length Bearing (true) Bearing (mag) Surface Threshold Offset Overrun Length
16 98 ft / 30 m 4,110 ft / 1,253 m 152.71° 158.29° Asphalt 0 ft / 0 m 112 ft / 34 m
34 98 ft / 30 m 4,110 ft / 1,253 m 332.71° 338.29° Asphalt 0 ft / 0 m 105 ft / 32 m